createdAt,value
2023-02-08T00:00:38.726Z,64.49
2023-02-08T00:02:40.901Z,64.05
2023-02-08T00:04:42.960Z,64.05
2023-02-08T00:06:44.589Z,64.83
2023-02-08T00:08:46.658Z,65.09
2023-02-08T00:10:49.193Z,64.59
2023-02-08T00:12:52.145Z,64.24
2023-02-08T00:14:53.819Z,65.03
2023-02-08T00:16:55.379Z,64.94
2023-02-08T00:18:57.016Z,64.57
2023-02-08T00:20:59.017Z,64.70
2023-02-08T00:23:00.671Z,64.81
2023-02-08T00:25:03.442Z,65.27
2023-02-08T00:27:04.950Z,65.09
2023-02-08T00:29:07.829Z,65.49
2023-02-08T00:31:09.878Z,65.41
2023-02-08T00:33:12.006Z,65.29
2023-02-08T00:35:13.650Z,65.14
2023-02-08T00:37:15.293Z,64.75
2023-02-08T00:39:17.361Z,65.01
2023-02-08T00:41:19.189Z,64.72
2023-02-08T00:43:22.645Z,65.08
2023-02-08T00:45:25.824Z,65.32
2023-02-08T00:47:27.417Z,64.95
2023-02-08T00:49:28.981Z,65.10
2023-02-08T00:51:31.007Z,64.97
2023-02-08T00:53:36.390Z,65.08
2023-02-08T00:55:38.242Z,65.04
2023-02-08T00:57:39.774Z,65.56
2023-02-08T00:59:42.327Z,64.86
2023-02-08T01:01:46.041Z,65.16
2023-02-08T01:03:47.942Z,65.06
2023-02-08T01:05:51.164Z,65.10
2023-02-08T01:07:52.759Z,65.49
2023-02-08T01:09:54.789Z,65.72
2023-02-08T01:11:56.417Z,65.36
2023-02-08T01:13:58.246Z,65.90
2023-02-08T01:16:07.056Z,65.45
2023-02-08T01:18:10.538Z,65.83
2023-02-08T01:20:12.298Z,65.69
2023-02-08T01:22:15.606Z,65.75
2023-02-08T01:24:18.129Z,65.34
2023-02-08T01:26:21.708Z,65.53
2023-02-08T01:28:23.308Z,66.03
2023-02-08T01:30:25.249Z,66.02
2023-02-08T01:32:27.562Z,65.65
2023-02-08T01:34:30.765Z,65.83
2023-02-08T01:36:33.606Z,66.18
2023-02-08T01:38:36.677Z,66.20
2023-02-08T01:40:38.443Z,66.60
2023-02-08T01:42:40.649Z,66.17
2023-02-08T01:45:27.889Z,66.02
2023-02-08T01:47:30.517Z,66.14
2023-02-08T01:49:37.233Z,66.16
2023-02-08T01:51:43.337Z,66.57
2023-02-08T01:53:46.518Z,66.68
2023-02-08T01:55:52.825Z,66.63
2023-02-08T01:57:58.426Z,66.59
2023-02-08T02:00:04.394Z,66.74
2023-02-08T02:02:10.073Z,66.64
2023-02-08T02:04:12.303Z,66.79
2023-02-08T02:06:21.417Z,66.49
2023-02-08T02:08:23.013Z,67.03
2023-02-08T02:10:28.272Z,67.01
2023-02-08T02:12:31.684Z,67.18
2023-02-08T02:14:33.930Z,66.89
2023-02-08T02:16:35.752Z,67.21
2023-02-08T02:18:37.851Z,67.11
2023-02-08T02:20:53.761Z,66.86
2023-02-08T02:23:28.771Z,66.73
2023-02-08T02:25:57.077Z,67.10
2023-02-08T02:28:36.337Z,66.78
2023-02-08T02:31:16.933Z,66.65
2023-02-08T02:33:48.995Z,67.03
2023-02-08T02:35:57.852Z,67.38
2023-02-08T02:38:09.845Z,67.17
2023-02-08T02:40:20.876Z,67.38
2023-02-08T02:42:31.652Z,67.37
2023-02-08T02:44:40.912Z,67.76
2023-02-08T02:46:50.363Z,67.79
2023-02-08T02:49:01.554Z,67.47
2023-02-08T02:51:08.989Z,67.71
2023-02-08T02:53:18.038Z,67.99
2023-02-08T02:55:24.992Z,67.42
2023-02-08T02:57:31.369Z,67.71
2023-02-08T02:59:34.716Z,67.73
2023-02-08T03:01:36.820Z,67.55
2023-02-08T03:03:38.461Z,68.18
2023-02-08T03:05:41.743Z,68.36
2023-02-08T03:08:05.786Z,68.17
2023-02-08T03:10:22.827Z,67.69
2023-02-08T03:12:40.020Z,67.57
2023-02-08T03:14:55.729Z,67.81
2023-02-08T03:17:21.650Z,67.87
2023-02-08T03:19:31.992Z,67.77
2023-02-08T03:21:42.362Z,67.67
2023-02-08T03:23:54.182Z,67.99
2023-02-08T03:26:07.596Z,67.47
2023-02-08T03:28:18.788Z,67.43
2023-02-08T03:30:28.503Z,67.57
2023-02-08T03:32:39.066Z,67.61
2023-02-08T03:34:49.769Z,67.61
2023-02-08T03:36:56.692Z,67.79
2023-02-08T03:39:01.598Z,67.66
2023-02-08T03:41:07.061Z,68.25
2023-02-08T03:43:15.286Z,67.86
2023-02-08T03:45:21.793Z,67.58
2023-02-08T03:47:26.658Z,67.84
2023-02-08T03:49:33.839Z,68.12
2023-02-08T03:51:37.493Z,68.33
2023-02-08T03:53:42.658Z,68.05
2023-02-08T03:55:47.597Z,67.71
2023-02-08T03:57:55.002Z,67.47
2023-02-08T04:00:00.197Z,68.18
2023-02-08T04:02:07.198Z,68.12
2023-02-08T04:04:09.804Z,67.94
2023-02-08T04:06:11.840Z,68.07
2023-02-08T04:08:13.984Z,67.79
2023-02-08T04:10:17.182Z,68.51
2023-02-08T04:12:18.833Z,68.09
2023-02-08T04:14:20.480Z,67.96
2023-02-08T04:16:22.090Z,68.22
2023-02-08T04:18:23.944Z,68.35
2023-02-08T04:20:25.563Z,68.16
2023-02-08T04:22:27.803Z,68.34
2023-02-08T04:24:29.703Z,68.10
2023-02-08T04:26:32.927Z,68.29
2023-02-08T04:28:35.268Z,67.81
2023-02-08T04:30:37.351Z,68.32
2023-02-08T04:32:40.433Z,68.08
2023-02-08T04:34:44.174Z,68.21
2023-02-08T04:36:45.732Z,67.81
2023-02-08T04:38:47.292Z,67.57
2023-02-08T04:40:49.191Z,67.80
2023-02-08T04:42:52.097Z,67.91
2023-02-08T04:44:53.967Z,68.36
2023-02-08T04:46:56.020Z,68.29
2023-02-08T04:48:59.011Z,68.07
2023-02-08T04:51:00.775Z,67.60
2023-02-08T04:53:02.566Z,67.79
2023-02-08T04:55:04.652Z,67.92
2023-02-08T04:57:06.178Z,67.72
2023-02-08T04:59:09.315Z,68.03
2023-02-08T05:01:10.944Z,67.77
2023-02-08T05:03:13.141Z,68.24
2023-02-08T05:05:14.957Z,68.19
2023-02-08T05:07:16.540Z,67.98
2023-02-08T05:09:18.171Z,68.05
2023-02-08T05:11:20.980Z,68.08
2023-02-08T05:13:22.608Z,68.27
2023-02-08T05:15:25.593Z,68.32
2023-02-08T05:17:27.200Z,67.98
2023-02-08T05:19:29.313Z,68.48
2023-02-08T05:21:31.150Z,68.32
2023-02-08T05:23:32.916Z,67.74
2023-02-08T05:25:34.756Z,67.84
2023-02-08T05:27:36.741Z,67.74
2023-02-08T05:29:38.572Z,68.07
2023-02-08T05:31:42.178Z,68.24
2023-02-08T05:33:43.838Z,68.28
2023-02-08T05:35:45.996Z,68.22
2023-02-08T05:37:49.097Z,67.92
2023-02-08T05:39:50.639Z,67.74
2023-02-08T05:41:52.490Z,68.58
2023-02-08T05:43:54.120Z,68.49
2023-02-08T05:45:55.702Z,68.49
2023-02-08T05:47:58.997Z,68.31
2023-02-08T05:50:00.815Z,68.25
2023-02-08T05:52:02.346Z,68.60
2023-02-08T05:54:04.377Z,68.40
2023-02-08T05:56:06.648Z,68.56
2023-02-08T05:58:08.378Z,68.12
2023-02-08T06:00:11.021Z,68.73
2023-02-08T06:02:12.876Z,68.78
2023-02-08T06:04:16.245Z,68.34
2023-02-08T06:06:18.273Z,68.80
2023-02-08T06:08:20.228Z,68.47
2023-02-08T06:10:21.991Z,68.18
2023-02-08T06:12:23.945Z,68.54
2023-02-08T06:14:27.069Z,68.40
2023-02-08T06:16:28.699Z,68.96
2023-02-08T06:18:30.298Z,68.67
2023-02-08T06:20:34.946Z,68.62
2023-02-08T06:22:36.997Z,68.77
2023-02-08T06:24:38.563Z,68.75
2023-02-08T06:26:40.496Z,68.71
2023-02-08T06:28:42.171Z,69.11
2023-02-08T06:30:44.624Z,69.13
2023-02-08T06:32:46.977Z,69.23
2023-02-08T06:34:48.640Z,69.09
2023-02-08T06:36:51.610Z,69.09
2023-02-08T06:38:53.284Z,69.23
2023-02-08T06:40:55.100Z,69.56
2023-02-08T06:42:57.153Z,69.08
2023-02-08T06:44:58.770Z,69.18
2023-02-08T06:47:00.830Z,69.39
2023-02-08T06:49:02.520Z,68.76
2023-02-08T06:51:04.403Z,69.38
2023-02-08T06:53:07.828Z,69.39
2023-02-08T06:55:09.585Z,69.86
2023-02-08T06:57:11.793Z,69.30
2023-02-08T06:59:13.654Z,68.88
2023-02-08T07:01:15.602Z,69.22
2023-02-08T07:03:18.940Z,69.12
2023-02-08T07:05:20.774Z,69.30
2023-02-08T07:07:22.612Z,69.09
2023-02-08T07:09:25.798Z,69.79
2023-02-08T07:11:27.729Z,69.03
2023-02-08T07:13:29.313Z,69.49
2023-02-08T07:15:30.951Z,69.47
2023-02-08T07:17:32.620Z,69.26
2023-02-08T07:19:34.292Z,69.10
2023-02-08T07:21:36.105Z,69.15
2023-02-08T07:23:38.160Z,69.54
2023-02-08T07:25:41.257Z,69.83
2023-02-08T07:27:44.449Z,69.74
2023-02-08T07:29:46.762Z,69.64
2023-02-08T07:31:48.524Z,69.30
2023-02-08T07:33:50.527Z,69.50
2023-02-08T07:35:52.495Z,69.85
2023-02-08T07:37:54.473Z,69.66
2023-02-08T07:39:57.583Z,69.78
2023-02-08T07:42:00.690Z,69.07
2023-02-08T07:44:02.350Z,69.51
2023-02-08T07:46:08.490Z,69.94
2023-02-08T07:48:10.109Z,69.68
2023-02-08T07:50:11.740Z,69.08
2023-02-08T07:52:13.596Z,69.81
2023-02-08T07:54:15.981Z,69.87
2023-02-08T07:56:18.178Z,70.10
2023-02-08T07:58:21.408Z,69.97
2023-02-08T08:00:23.468Z,69.50
2023-02-08T08:02:25.133Z,70.21
2023-02-08T08:04:26.937Z,69.58
2023-02-08T08:06:28.885Z,69.58
2023-02-08T08:08:30.771Z,70.09
2023-02-08T08:10:32.332Z,69.23
2023-02-08T08:12:33.970Z,69.64
2023-02-08T08:14:37.051Z,70.19
2023-02-08T08:16:38.862Z,69.79
2023-02-08T08:18:40.968Z,69.74
2023-02-08T08:20:42.688Z,69.55
2023-02-08T08:22:44.569Z,69.66
2023-02-08T08:24:46.677Z,69.89
2023-02-08T08:26:48.174Z,69.56
2023-02-08T08:28:50.235Z,69.42
2023-02-08T08:30:53.380Z,69.54
2023-02-08T08:32:55.132Z,69.46
2023-02-08T08:34:56.960Z,68.90
2023-02-08T08:37:01.524Z,69.77
2023-02-08T08:39:03.729Z,69.15
2023-02-08T08:41:08.626Z,69.09
2023-02-08T08:43:10.430Z,68.59
2023-02-08T08:45:11.973Z,68.74
2023-02-08T08:47:15.423Z,68.48
2023-02-08T08:49:17.222Z,67.39
2023-02-08T08:51:19.386Z,67.04
2023-02-08T08:53:21.055Z,67.04
2023-02-08T08:55:22.854Z,66.54
2023-02-08T08:57:24.807Z,66.29
2023-02-08T08:59:26.405Z,65.76
2023-02-08T09:01:28.251Z,65.48
2023-02-08T09:03:31.479Z,64.01
2023-02-08T09:05:33.868Z,63.35
2023-02-08T09:07:35.490Z,63.78
2023-02-08T09:09:38.569Z,63.83
2023-02-08T09:11:40.163Z,62.79
2023-02-08T09:13:42.743Z,62.47
2023-02-08T09:15:44.346Z,62.15
2023-02-08T09:17:45.975Z,62.15
2023-02-08T09:19:48.966Z,61.15
2023-02-08T09:21:50.672Z,60.74
2023-02-08T09:23:52.351Z,60.91
2023-02-08T09:25:54.458Z,60.08
2023-02-08T09:27:56.030Z,60.24
2023-02-08T09:29:57.825Z,61.23
2023-02-08T09:32:00.157Z,60.91
2023-02-08T09:34:02.226Z,60.10
2023-02-08T09:36:06.084Z,59.94
2023-02-08T09:38:07.733Z,60.62
2023-02-08T09:40:21.357Z,60.83
2023-02-08T09:42:33.201Z,60.40
2023-02-08T09:44:48.149Z,59.61
2023-02-08T09:46:58.276Z,60.02
2023-02-08T09:49:05.299Z,60.00
2023-02-08T09:51:14.988Z,59.65
2023-02-08T09:53:21.349Z,57.92
2023-02-08T09:55:32.580Z,58.28
2023-02-08T09:57:37.147Z,57.37
2023-02-08T09:59:46.976Z,58.08
2023-02-08T10:01:51.169Z,57.44
2023-02-08T10:03:56.540Z,57.08
2023-02-08T10:05:58.771Z,56.15
2023-02-08T10:08:02.105Z,57.63
2023-02-08T10:10:06.690Z,55.69
2023-02-08T10:12:17.561Z,58.66
2023-02-08T10:14:43.587Z,58.51
2023-02-08T10:16:59.889Z,56.12
2023-02-08T10:19:12.036Z,55.86
2023-02-08T10:21:28.868Z,56.99
2023-02-08T10:24:14.147Z,57.01
2023-02-08T10:26:29.391Z,56.32
2023-02-08T10:28:54.769Z,54.92
2023-02-08T10:31:02.956Z,52.98
2023-02-08T10:33:13.104Z,53.49
2023-02-08T10:35:26.450Z,53.86
2023-02-08T10:37:32.057Z,52.87
2023-02-08T10:39:36.983Z,52.99
2023-02-08T10:41:38.504Z,52.43
2023-02-08T10:43:45.052Z,51.96
2023-02-08T10:45:53.898Z,51.28
2023-02-08T10:47:58.523Z,50.52
2023-02-08T10:50:03.001Z,51.50
2023-02-08T10:52:05.150Z,51.19
2023-02-08T10:54:06.785Z,50.33
2023-02-08T10:56:33.333Z,52.90
2023-02-08T10:58:36.855Z,49.53
2023-02-08T11:00:39.249Z,50.96
2023-02-08T11:02:42.551Z,50.25
2023-02-08T11:04:58.155Z,52.39
2023-02-08T11:07:20.633Z,53.29
2023-02-08T11:09:26.359Z,49.82
2023-02-08T11:11:35.360Z,51.00
2023-02-08T11:13:39.593Z,49.71
2023-02-08T11:15:46.564Z,48.32
2023-02-08T11:17:54.733Z,50.02
2023-02-08T11:20:01.409Z,48.53
2023-02-08T11:22:04.579Z,47.64
2023-02-08T11:24:27.781Z,51.03
2023-02-08T11:26:36.371Z,50.05
2023-02-08T11:28:37.999Z,48.36
2023-02-08T11:30:39.820Z,47.89
2023-02-08T11:32:42.435Z,48.72
2023-02-08T11:34:44.106Z,49.03
2023-02-08T11:36:47.315Z,47.76
2023-02-08T11:38:48.850Z,47.09
2023-02-08T11:40:50.900Z,47.34
2023-02-08T11:42:54.428Z,48.14
2023-02-08T11:44:58.032Z,47.85
2023-02-08T11:47:02.767Z,47.16
2023-02-08T11:49:04.676Z,47.35
2023-02-08T11:51:07.199Z,47.39
2023-02-08T11:53:20.722Z,49.74
2023-02-08T11:55:24.792Z,47.53
2023-02-08T11:57:26.947Z,47.87
2023-02-08T11:59:31.060Z,48.42
2023-02-08T12:01:35.010Z,47.41
2023-02-08T12:03:39.191Z,48.06
2023-02-08T12:05:49.091Z,48.87
2023-02-08T12:08:04.589Z,49.75
2023-02-08T12:10:26.807Z,50.07
2023-02-08T12:12:38.597Z,49.07
2023-02-08T12:14:52.530Z,49.80
2023-02-08T12:17:12.688Z,48.93
2023-02-08T12:19:43.282Z,46.96
2023-02-08T12:21:47.150Z,46.42
2023-02-08T12:23:54.228Z,47.42
2023-02-08T12:26:07.148Z,47.69
2023-02-08T12:28:16.711Z,47.63
2023-02-08T12:30:30.126Z,49.28
2023-02-08T12:32:52.885Z,50.46
2023-02-08T12:35:13.409Z,49.84
2023-02-08T12:37:26.804Z,49.77
2023-02-08T12:39:43.345Z,48.72
2023-02-08T12:41:53.071Z,47.71
2023-02-08T12:44:05.222Z,47.21
2023-02-08T12:46:25.115Z,49.15
2023-02-08T12:48:41.302Z,48.99
2023-02-08T12:50:52.750Z,46.92
2023-02-08T12:53:00.858Z,47.69
2023-02-08T12:55:13.673Z,48.73
2023-02-08T12:57:19.786Z,48.42
2023-02-08T12:59:27.824Z,48.17
2023-02-08T13:01:34.571Z,48.58
2023-02-08T13:03:43.209Z,48.68
2023-02-08T13:06:01.786Z,48.46
2023-02-08T13:08:17.134Z,49.65
2023-02-08T13:10:24.485Z,48.79
2023-02-08T13:12:30.662Z,49.06
2023-02-08T13:14:36.216Z,47.93
2023-02-08T13:16:43.828Z,48.78
2023-02-08T13:18:51.927Z,48.91
2023-02-08T13:20:58.491Z,49.00
2023-02-08T13:23:04.237Z,49.22
2023-02-08T13:25:16.550Z,50.16
2023-02-08T13:27:21.008Z,49.18
2023-02-08T13:29:28.100Z,48.53
2023-02-08T13:31:33.992Z,48.48
2023-02-08T13:33:59.323Z,50.52
2023-02-08T13:36:04.323Z,48.92
2023-02-08T13:38:17.091Z,48.96
2023-02-08T13:40:21.490Z,49.29
2023-02-08T13:42:29.227Z,50.18
2023-02-08T13:44:34.270Z,49.09
2023-02-08T13:46:38.073Z,49.37
2023-02-08T13:48:58.703Z,51.83
2023-02-08T13:51:00.267Z,49.86
2023-02-08T13:53:02.397Z,49.34
2023-02-08T13:55:44.126Z,51.11
2023-02-08T13:57:53.587Z,51.00
2023-02-08T14:00:21.367Z,51.23
2023-02-08T14:02:26.534Z,49.71
2023-02-08T14:04:43.884Z,51.10
2023-02-08T14:06:49.724Z,50.14
2023-02-08T14:08:58.449Z,50.73
2023-02-08T14:11:14.177Z,50.17
2023-02-08T14:13:27.220Z,50.65
2023-02-08T14:15:37.506Z,50.17
2023-02-08T14:17:43.482Z,50.16
2023-02-08T14:19:57.832Z,50.57
2023-02-08T14:22:02.819Z,49.96
2023-02-08T14:24:06.970Z,50.15
2023-02-08T14:26:18.764Z,49.66
2023-02-08T14:28:27.342Z,51.05
2023-02-08T14:30:32.150Z,50.85
2023-02-08T14:32:37.353Z,50.59
2023-02-08T14:34:40.823Z,50.40
2023-02-08T14:36:43.979Z,50.94
2023-02-08T14:39:09.042Z,51.93
2023-02-08T14:41:10.675Z,50.28
2023-02-08T14:43:31.780Z,52.00
2023-02-08T14:45:36.154Z,50.57
2023-02-08T14:48:22.444Z,52.79
2023-02-08T14:50:31.149Z,52.15
2023-02-08T14:52:35.510Z,51.14
2023-02-08T14:54:46.610Z,52.30
2023-02-08T14:56:56.158Z,51.60
2023-02-08T14:59:01.923Z,50.98
2023-02-08T15:01:08.161Z,51.75
2023-02-08T15:03:16.979Z,52.31
2023-02-08T15:05:24.190Z,51.76
2023-02-08T15:07:33.579Z,51.75
2023-02-08T15:09:40.400Z,52.06
2023-02-08T15:11:42.811Z,51.77
2023-02-08T15:13:49.389Z,51.88
2023-02-08T15:15:54.021Z,51.60
2023-02-08T15:17:57.007Z,51.59
2023-02-08T15:19:59.682Z,52.40
2023-02-08T15:22:17.286Z,52.92
2023-02-08T15:24:20.362Z,52.30
2023-02-08T15:26:24.978Z,52.97
2023-02-08T15:28:29.288Z,52.39
2023-02-08T15:30:39.931Z,53.79
2023-02-08T15:32:41.501Z,52.55
2023-02-08T15:34:46.739Z,53.40
2023-02-08T15:36:52.823Z,53.65
2023-02-08T15:38:56.315Z,53.61
2023-02-08T15:41:04.161Z,54.00
2023-02-08T15:43:13.356Z,54.48
2023-02-08T15:45:27.268Z,54.64
2023-02-08T15:47:32.709Z,54.28
2023-02-08T15:49:37.209Z,54.21
2023-02-08T15:51:39.185Z,54.79
2023-02-08T15:53:43.506Z,55.02
2023-02-08T15:55:49.184Z,54.95
2023-02-08T15:57:57.116Z,55.23
2023-02-08T16:00:01.180Z,54.95
2023-02-08T16:02:19.196Z,55.64
2023-02-08T16:04:21.946Z,55.35
2023-02-08T16:06:26.047Z,55.35
2023-02-08T16:08:31.182Z,55.94
2023-02-08T16:10:38.690Z,55.86
2023-02-08T16:12:40.370Z,55.94
2023-02-08T16:14:52.186Z,55.88
2023-02-08T16:16:58.055Z,56.16
2023-02-08T16:19:01.152Z,56.83
2023-02-08T16:21:04.926Z,56.83
2023-02-08T16:23:25.404Z,57.18
2023-02-08T16:25:44.439Z,57.21
2023-02-08T16:27:48.536Z,57.45
2023-02-08T16:29:50.391Z,56.92
2023-02-08T16:32:00.355Z,57.68
2023-02-08T16:34:04.883Z,58.21
2023-02-08T16:36:06.861Z,57.80
2023-02-08T16:38:10.030Z,58.01
2023-02-08T16:40:44.509Z,58.09
2023-02-08T16:42:46.456Z,57.70
2023-02-08T16:45:17.066Z,58.31
2023-02-08T16:47:27.347Z,58.40
2023-02-08T16:49:29.117Z,58.71
2023-02-08T16:51:32.904Z,58.74
2023-02-08T16:53:42.015Z,58.74
2023-02-08T16:55:44.901Z,59.04
2023-02-08T16:57:49.031Z,58.83
2023-02-08T16:59:52.403Z,59.27
2023-02-08T17:01:54.093Z,58.90
2023-02-08T17:03:57.396Z,58.93
2023-02-08T17:06:00.453Z,59.54
2023-02-08T17:08:04.457Z,58.90
2023-02-08T17:10:08.441Z,59.43
2023-02-08T17:12:21.552Z,59.27
2023-02-08T17:14:24.289Z,59.93
2023-02-08T17:16:27.858Z,59.65
2023-02-08T17:18:29.691Z,60.19
2023-02-08T17:20:34.837Z,60.18
2023-02-08T17:22:36.366Z,60.56
2023-02-08T17:24:39.868Z,60.21
2023-02-08T17:26:43.917Z,60.03
2023-02-08T17:28:46.484Z,60.71
2023-02-08T17:30:49.455Z,60.64
2023-02-08T17:32:51.555Z,60.91
2023-02-08T17:34:53.134Z,60.65
2023-02-08T17:36:56.169Z,61.05
2023-02-08T17:38:58.662Z,61.17
2023-02-08T17:41:03.244Z,61.16
2023-02-08T17:43:06.034Z,60.93
2023-02-08T17:45:09.054Z,61.13
2023-02-08T17:47:10.934Z,61.38
2023-02-08T17:49:12.747Z,61.14
2023-02-08T17:51:16.744Z,61.76
2023-02-08T17:53:19.999Z,62.18
2023-02-08T17:55:22.070Z,61.54
2023-02-08T17:57:23.621Z,61.63
2023-02-08T17:59:26.275Z,62.39
2023-02-08T18:01:28.358Z,62.51
2023-02-08T18:03:29.977Z,62.21
2023-02-08T18:05:31.866Z,62.41
2023-02-08T18:07:33.756Z,62.54
2023-02-08T18:09:37.525Z,62.64
2023-02-08T18:11:39.136Z,62.89
2023-02-08T18:13:41.156Z,62.92
2023-02-08T18:15:43.530Z,62.68
2023-02-08T18:17:46.484Z,63.33
2023-02-08T18:19:48.301Z,63.53
2023-02-08T18:21:52.125Z,63.42
2023-02-08T18:23:54.271Z,63.65
2023-02-08T18:26:05.882Z,63.41
2023-02-08T18:28:07.527Z,63.11
2023-02-08T18:30:11.252Z,63.47
2023-02-08T18:32:13.387Z,63.30
2023-02-08T18:34:14.988Z,63.44
2023-02-08T18:36:16.724Z,63.67
2023-02-08T18:38:18.424Z,63.77
2023-02-08T18:40:20.174Z,63.45
2023-02-08T18:42:23.357Z,63.75
2023-02-08T18:44:24.960Z,63.44
2023-02-08T18:46:28.486Z,64.12
2023-02-08T18:48:30.310Z,63.61
2023-02-08T18:50:31.930Z,63.78
2023-02-08T18:52:34.075Z,64.40
2023-02-08T18:54:37.974Z,64.55
2023-02-08T18:56:41.021Z,64.35
2023-02-08T18:58:44.215Z,64.47
2023-02-08T19:00:45.793Z,64.57
2023-02-08T19:02:47.717Z,64.63
2023-02-08T19:04:49.613Z,64.43
2023-02-08T19:06:51.460Z,65.04
2023-02-08T19:08:55.597Z,64.67
2023-02-08T19:10:57.653Z,65.19
2023-02-08T19:12:59.508Z,64.79
2023-02-08T19:15:02.416Z,65.04
2023-02-08T19:17:04.304Z,64.67
2023-02-08T19:19:07.029Z,65.14
2023-02-08T19:21:11.547Z,65.37
2023-02-08T19:23:13.069Z,65.06
2023-02-08T19:25:14.798Z,65.19
2023-02-08T19:27:16.454Z,65.49
2023-02-08T19:29:19.049Z,64.94
2023-02-08T19:31:23.242Z,65.50
2023-02-08T19:33:25.320Z,65.19
2023-02-08T19:35:27.112Z,65.14
2023-02-08T19:37:28.759Z,64.91
2023-02-08T19:39:30.300Z,65.39
2023-02-08T19:41:34.757Z,65.66
2023-02-08T19:43:36.882Z,65.82
2023-02-08T19:45:38.488Z,65.52
2023-02-08T19:47:50.985Z,66.15
2023-02-08T19:49:56.769Z,65.78
2023-02-08T19:51:58.945Z,65.80
2023-02-08T19:54:01.957Z,65.55
2023-02-08T19:56:06.694Z,66.04
2023-02-08T19:58:08.549Z,66.22
2023-02-08T20:00:23.011Z,66.03
2023-02-08T20:02:25.962Z,65.84
2023-02-08T20:04:28.885Z,65.69
2023-02-08T20:06:33.115Z,65.70
2023-02-08T20:08:34.648Z,66.06
2023-02-08T20:10:37.689Z,66.28
2023-02-08T20:12:39.613Z,66.21
2023-02-08T20:14:41.194Z,66.48
2023-02-08T20:16:42.788Z,66.09
2023-02-08T20:18:44.874Z,66.29
2023-02-08T20:20:59.220Z,65.76
2023-02-08T20:23:01.363Z,65.96
2023-02-08T20:25:03.706Z,65.82
2023-02-08T20:27:05.409Z,66.15
2023-02-08T20:29:08.744Z,66.13
2023-02-08T20:31:12.824Z,66.34
2023-02-08T20:33:15.768Z,65.87
2023-02-08T20:35:18.044Z,65.68
2023-02-08T20:37:20.954Z,66.06
2023-02-08T20:39:22.731Z,65.98
2023-02-08T20:41:27.054Z,65.58
2023-02-08T20:43:28.550Z,65.50
2023-02-08T20:45:30.085Z,66.00
2023-02-08T20:47:33.819Z,66.17
2023-02-08T20:49:38.111Z,65.95
2023-02-08T20:51:39.624Z,65.98
2023-02-08T20:53:44.246Z,66.04
2023-02-08T20:55:46.224Z,66.15
2023-02-08T20:57:47.989Z,65.70
2023-02-08T20:59:50.803Z,66.01
2023-02-08T21:01:52.573Z,66.03
2023-02-08T21:03:56.012Z,66.07
2023-02-08T21:05:57.577Z,65.80
2023-02-08T21:07:59.188Z,65.57
2023-02-08T21:10:02.126Z,65.60
2023-02-08T21:12:04.978Z,65.86
2023-02-08T21:14:10.442Z,65.77
2023-02-08T21:16:12.179Z,65.93
2023-02-08T21:18:14.095Z,66.23
2023-02-08T21:20:15.778Z,65.99
2023-02-08T21:22:17.603Z,65.70
2023-02-08T21:24:19.361Z,65.67
2023-02-08T21:26:22.296Z,65.55
2023-02-08T21:28:24.291Z,65.55
2023-02-08T21:30:25.930Z,65.48
2023-02-08T21:32:27.527Z,65.01
2023-02-08T21:34:29.154Z,65.44
2023-02-08T21:36:30.845Z,65.11
2023-02-08T21:38:35.361Z,65.08
2023-02-08T21:40:36.926Z,65.11
2023-02-08T21:42:39.913Z,65.00
2023-02-08T21:44:41.565Z,65.02
2023-02-08T21:46:43.500Z,65.38
2023-02-08T21:48:46.133Z,65.21
2023-02-08T21:50:47.647Z,64.91
2023-02-08T21:52:49.541Z,65.33
2023-02-08T21:54:51.214Z,65.63
2023-02-08T21:56:52.833Z,65.61
2023-02-08T21:58:55.733Z,65.61
2023-02-08T22:00:57.365Z,65.06
2023-02-08T22:02:59.000Z,65.43
2023-02-08T22:05:02.214Z,65.43
2023-02-08T22:07:04.803Z,65.35
2023-02-08T22:09:06.464Z,65.38
2023-02-08T22:11:08.977Z,65.28
2023-02-08T22:13:11.095Z,65.34
2023-02-08T22:15:15.870Z,64.73
2023-02-08T22:17:17.706Z,65.76
2023-02-08T22:19:19.837Z,65.74
2023-02-08T22:21:21.693Z,65.75
2023-02-08T22:23:25.237Z,65.24
2023-02-08T22:25:26.875Z,65.42
2023-02-08T22:27:28.940Z,65.53
2023-02-08T22:29:30.659Z,65.68
2023-02-08T22:31:33.849Z,65.29
2023-02-08T22:33:35.925Z,64.64
2023-02-08T22:35:39.316Z,65.70
2023-02-08T22:37:41.316Z,65.31
2023-02-08T22:39:43.054Z,65.89
2023-02-08T22:41:44.796Z,65.86
2023-02-08T22:43:46.377Z,65.79
2023-02-08T22:45:56.744Z,65.45
2023-02-08T22:47:59.651Z,65.69
2023-02-08T22:50:01.365Z,65.22
2023-02-08T22:52:06.548Z,65.09
2023-02-08T22:54:08.121Z,65.81
2023-02-08T22:56:13.035Z,65.22
2023-02-08T22:58:14.896Z,65.48
2023-02-08T23:00:19.408Z,65.59
2023-02-08T23:02:21.463Z,65.00
2023-02-08T23:04:24.402Z,65.53
2023-02-08T23:06:26.014Z,65.62
2023-02-08T23:08:27.951Z,65.67
2023-02-08T23:10:29.994Z,65.65
2023-02-08T23:12:33.794Z,65.06
2023-02-08T23:14:35.612Z,65.55
2023-02-08T23:16:37.715Z,65.31
2023-02-08T23:18:39.437Z,65.81
2023-02-08T23:20:42.735Z,65.70
2023-02-08T23:22:44.517Z,65.35
2023-02-08T23:24:46.363Z,65.37
2023-02-08T23:26:47.913Z,65.25
2023-02-08T23:28:50.978Z,65.40
2023-02-08T23:30:52.971Z,64.82
2023-02-08T23:32:54.676Z,65.65
2023-02-08T23:34:56.464Z,64.96
2023-02-08T23:36:59.363Z,65.47
2023-02-08T23:39:01.156Z,64.68
2023-02-08T23:41:03.881Z,65.57
2023-02-08T23:43:05.738Z,65.12
2023-02-08T23:45:08.557Z,64.76
2023-02-08T23:47:10.332Z,65.01
2023-02-08T23:49:11.943Z,64.79
2023-02-08T23:51:14.576Z,64.98
2023-02-08T23:53:17.785Z,64.95
2023-02-08T23:55:19.554Z,65.18
2023-02-08T23:57:21.732Z,64.72
2023-02-08T23:59:23.310Z,64.88
